Time;durP1;ratioP1;P1;durP2;ratioP2;P2;SDS_P1;SDS_P2;PMS_P1;PMS_P2;Temp;Humidity;BMP_temperature;BMP_pressure;BME280_temperature;BME280_humidity;BME280_pressure;Samples;Min_cycle;Max_cycle;Signal;HPM_P1;HPM_P2
2022/07/08 00:01:23;;;;;;;4.40;2.65;;;19.60;99.70;;;;;;5071385;28;20055;-74
2022/07/08 00:03:49;;;;;;;5.32;2.53;;;19.60;99.70;;;;;;5074144;28;20017;-77
2022/07/08 00:06:15;;;;;;;5.22;2.80;;;19.50;99.90;;;;;;5074368;28;20039;-74
2022/07/08 00:08:41;;;;;;;5.18;3.08;;;19.50;99.90;;;;;;5074363;28;20020;-68
2022/07/08 00:11:06;;;;;;;4.68;3.08;;;19.60;99.80;;;;;;5073823;28;20506;-63
2022/07/08 00:13:32;;;;;;;3.58;2.35;;;19.50;99.90;;;;;;5074080;28;20111;-73
2022/07/08 00:15:58;;;;;;;4.05;2.63;;;19.50;99.90;;;;;;5074052;28;20041;-77
2022/07/08 00:18:24;;;;;;;4.85;2.65;;;19.50;99.60;;;;;;5074144;28;20024;-70
2022/07/08 00:20:50;;;;;;;5.43;2.53;;;19.60;99.40;;;;;;5074445;28;20032;-76
2022/07/08 00:23:15;;;;;;;3.35;2.08;;;19.60;99.00;;;;;;5074559;28;20020;-77
2022/07/08 00:25:41;;;;;;;3.10;1.88;;;19.60;98.80;;;;;;5074139;28;20075;-71
2022/07/08 00:28:07;;;;;;;3.75;2.03;;;19.60;98.30;;;;;;5074343;28;20017;-76
2022/07/08 00:30:33;;;;;;;2.80;1.85;;;19.60;98.50;;;;;;5074094;28;20037;-76
2022/07/08 00:32:59;;;;;;;2.42;1.75;;;19.60;98.30;;;;;;5073926;28;20142;-73
2022/07/08 00:35:25;;;;;;;4.65;1.73;;;19.60;98.00;;;;;;5074019;28;20052;-73
2022/07/08 00:37:52;;;;;;;2.92;1.75;;;19.60;98.20;;;;;;5074190;28;20086;-77
2022/07/08 00:40:18;;;;;;;3.33;1.52;;;19.50;98.90;;;;;;5073747;28;20075;-75
2022/07/08 00:42:48;;;;;;;3.20;1.77;;;19.50;99.30;;;;;;5073930;28;20056;-77
2022/07/08 00:45:14;;;;;;;2.22;1.73;;;19.50;99.90;;;;;;5073653;28;20035;-75
2022/07/08 00:47:40;;;;;;;4.95;1.48;;;19.50;99.90;;;;;;5073687;28;20039;-69
2022/07/08 00:50:06;;;;;;;2.72;1.73;;;19.40;99.90;;;;;;5073437;28;20418;-75
2022/07/08 00:52:32;;;;;;;2.58;1.77;;;19.40;99.90;;;;;;5073948;28;20052;-69
2022/07/08 00:55:00;;;;;;;5.50;1.73;;;19.40;99.90;;;;;;5073573;28;20094;-76
2022/07/08 00:57:26;;;;;;;1.40;1.30;;;19.40;99.90;;;;;;5073872;28;20028;-76
2022/07/08 00:59:51;;;;;;;2.10;1.50;;;19.50;99.90;;;;;;5073650;28;20086;-72
2022/07/08 01:02:17;;;;;;;2.05;1.65;;;19.50;99.90;;;;;;5073503;28;20039;-71
2022/07/08 01:04:43;;;;;;;5.18;1.98;;;19.40;99.90;;;;;;5073526;28;20475;-73
2022/07/08 01:07:09;;;;;;;2.03;1.55;;;19.40;99.90;;;;;;5073448;28;20059;-77
2022/07/08 01:09:35;;;;;;;4.50;1.38;;;19.40;99.90;;;;;;5073518;28;20020;-75
2022/07/08 01:12:00;;;;;;;3.50;1.88;;;19.50;99.90;;;;;;5075458;28;20462;-76
2022/07/08 01:14:26;;;;;;;3.42;1.52;;;19.40;99.90;;;;;;5059965;28;20029;-76
2022/07/08 01:16:52;;;;;;;5.10;1.70;;;19.40;99.90;;;;;;5051642;28;20055;-75
2022/07/08 01:19:18;;;;;;;1.52;1.40;;;19.40;99.90;;;;;;5055515;28;20053;-69
2022/07/08 01:21:44;;;;;;;3.80;1.67;;;19.40;99.90;;;;;;5051820;28;20031;-67
2022/07/08 01:24:10;;;;;;;2.55;1.67;;;19.40;99.90;;;;;;5052524;28;20066;-66
2022/07/08 01:26:36;;;;;;;2.30;1.70;;;19.40;99.90;;;;;;5054739;28;20027;-70
2022/07/08 01:29:02;;;;;;;4.35;2.17;;;19.40;99.90;;;;;;5054102;28;20036;-73
2022/07/08 01:31:28;;;;;;;1.92;1.52;;;19.40;99.90;;;;;;5055710;28;20111;-68
2022/07/08 01:33:54;;;;;;;5.75;2.00;;;19.40;99.90;;;;;;5051212;28;20511;-77
2022/07/08 01:36:20;;;;;;;2.03;1.80;;;19.30;99.90;;;;;;5052235;28;20155;-67
2022/07/08 01:38:46;;;;;;;5.45;2.83;;;19.30;99.90;;;;;;5051291;28;20395;-76
2022/07/08 01:41:11;;;;;;;7.32;2.70;;;19.30;99.90;;;;;;5051114;28;20060;-75
2022/07/08 01:43:37;;;;;;;7.07;2.65;;;19.30;99.90;;;;;;5052548;28;20053;-69
2022/07/08 01:46:03;;;;;;;4.80;1.92;;;19.30;99.90;;;;;;5054885;28;20029;-76
2022/07/08 01:48:29;;;;;;;4.78;2.70;;;19.30;99.90;;;;;;5051212;28;20025;-76
2022/07/08 01:50:55;;;;;;;3.60;2.42;;;19.30;99.90;;;;;;5051073;28;20035;-75
2022/07/08 01:53:20;;;;;;;3.55;2.17;;;19.20;99.90;;;;;;5051296;28;20032;-76
2022/07/08 01:55:46;;;;;;;5.63;2.60;;;19.20;99.90;;;;;;5051196;28;20036;-75
2022/07/08 01:58:13;;;;;;;3.13;2.08;;;19.10;99.90;;;;;;5050946;28;20541;-74
2022/07/08 02:00:38;;;;;;;3.80;2.45;;;19.20;99.90;;;;;;5051337;28;20106;-72
2022/07/08 02:03:05;;;;;;;2.90;2.10;;;19.20;99.90;;;;;;5051371;28;20048;-75
2022/07/08 02:05:32;;;;;;;7.18;2.65;;;19.10;99.90;;;;;;5051534;28;20032;-69
2022/07/08 02:07:58;;;;;;;4.55;2.67;;;19.10;99.90;;;;;;5052835;28;20033;-73
2022/07/08 02:10:24;;;;;;;6.00;2.95;;;19.10;99.90;;;;;;5050779;28;20083;-68
2022/07/08 02:12:51;;;;;;;8.52;3.17;;;19.10;99.90;;;;;;5050770;28;20112;-72
2022/07/08 02:15:17;;;;;;;3.38;2.83;;;19.00;99.90;;;;;;5050383;28;20215;-71
2022/07/08 02:17:44;;;;;;;3.67;2.47;;;19.20;99.90;;;;;;5050827;28;20028;-75
2022/07/08 02:20:13;;;;;;;3.00;2.70;;;19.10;99.90;;;;;;5050582;28;20047;-72
2022/07/08 02:22:40;;;;;;;5.78;2.83;;;19.10;99.90;;;;;;5050915;28;20079;-72
2022/07/08 02:25:07;;;;;;;5.03;2.83;;;19.10;99.90;;;;;;5050781;28;20032;-74
2022/07/08 02:27:33;;;;;;;4.30;3.08;;;19.10;99.90;;;;;;5055732;28;20033;-75
2022/07/08 02:29:59;;;;;;;4.00;2.60;;;19.10;99.90;;;;;;5056862;28;20039;-72
2022/07/08 02:32:24;;;;;;;9.38;3.25;;;19.10;99.90;;;;;;5052300;28;20032;-74
2022/07/08 02:34:50;;;;;;;4.57;3.10;;;19.20;99.90;;;;;;5050215;28;20028;-74
2022/07/08 02:37:16;;;;;;;4.40;2.80;;;19.20;99.90;;;;;;5051140;28;20032;-75
2022/07/08 02:39:42;;;;;;;6.82;3.22;;;19.10;99.90;;;;;;5050471;28;20017;-73
2022/07/08 02:42:09;;;;;;;7.07;3.20;;;19.10;99.90;;;;;;5050748;28;20040;-73
2022/07/08 02:44:36;;;;;;;5.43;3.15;;;19.10;99.90;;;;;;5055326;28;20056;-73
2022/07/08 02:47:04;;;;;;;3.83;3.30;;;19.10;99.90;;;;;;5054172;28;20028;-74
2022/07/08 02:49:30;;;;;;;5.70;2.67;;;19.00;99.90;;;;;;5054588;28;20479;-75
2022/07/08 02:51:56;;;;;;;3.97;2.58;;;18.80;99.90;;;;;;5054601;28;20028;-71
2022/07/08 02:54:21;;;;;;;7.05;3.40;;;18.80;99.90;;;;;;5054645;28;20024;-76
2022/07/08 02:56:47;;;;;;;4.40;3.22;;;18.80;99.90;;;;;;5054423;28;20032;-74
2022/07/08 02:59:13;;;;;;;4.53;3.13;;;18.90;99.90;;;;;;5054324;28;20356;-73
2022/07/08 03:01:39;;;;;;;3.65;2.85;;;18.90;99.90;;;;;;5054557;28;20039;-75
2022/07/08 03:04:06;;;;;;;5.60;3.13;;;18.80;99.90;;;;;;5053969;28;20032;-75
2022/07/08 03:06:32;;;;;;;7.03;2.97;;;18.80;99.90;;;;;;5055107;28;20024;-72
2022/07/08 03:08:58;;;;;;;6.35;3.22;;;18.70;99.90;;;;;;5054148;28;20029;-71
2022/07/08 03:11:27;;;;;;;4.43;3.17;;;18.60;99.90;;;;;;5054024;28;20395;-70
2022/07/08 03:13:52;;;;;;;3.20;2.58;;;18.60;99.90;;;;;;5054116;28;20090;-72
2022/07/08 03:16:18;;;;;;;4.97;3.17;;;18.60;99.90;;;;;;5053850;28;20045;-71
2022/07/08 03:18:45;;;;;;;6.88;3.03;;;18.40;99.90;;;;;;5053982;28;20028;-69
2022/07/08 03:21:11;;;;;;;4.47;3.13;;;18.50;99.90;;;;;;5053985;28;20028;-74
2022/07/08 03:23:36;;;;;;;4.13;2.75;;;18.50;99.90;;;;;;5052553;28;20074;-74
2022/07/08 03:26:03;;;;;;;5.32;2.92;;;18.30;99.90;;;;;;5053861;28;20025;-75
2022/07/08 03:28:29;;;;;;;5.32;3.15;;;18.30;99.90;;;;;;5053922;28;20017;-74
2022/07/08 03:30:55;;;;;;;4.25;2.97;;;18.20;99.90;;;;;;5055506;28;20068;-72
2022/07/08 03:33:21;;;;;;;8.52;3.88;;;18.30;99.90;;;;;;5053718;28;20075;-74
2022/07/08 03:35:47;;;;;;;6.60;3.75;;;18.20;99.90;;;;;;5053834;28;20017;-71
2022/07/08 03:38:12;;;;;;;5.78;3.53;;;18.10;99.90;;;;;;5053707;28;20028;-69
2022/07/08 03:43:23;;;;;;;3.97;3.17;;;18.00;99.90;;;;;;5053694;28;20037;-74
2022/07/08 03:45:49;;;;;;;3.92;2.97;;;18.00;99.90;;;;;;5053555;28;20025;-70
2022/07/08 03:48:15;;;;;;;3.63;2.75;;;18.00;99.90;;;;;;5053288;28;20510;-73
2022/07/08 03:50:41;;;;;;;6.55;3.35;;;18.00;99.90;;;;;;5053559;28;20024;-75
2022/07/08 03:53:06;;;;;;;5.53;3.75;;;18.00;99.90;;;;;;5052803;28;20029;-69
2022/07/08 03:55:32;;;;;;;7.75;3.28;;;18.00;99.90;;;;;;5053212;28;20021;-71
2022/07/08 03:57:58;;;;;;;4.72;3.10;;;18.00;99.90;;;;;;5053245;28;20025;-73
2022/07/08 04:00:25;;;;;;;5.63;3.55;;;18.00;99.90;;;;;;5052381;28;20060;-71
2022/07/08 04:02:51;;;;;;;4.22;2.58;;;17.90;99.90;;;;;;5052232;28;20064;-73
2022/07/08 04:05:17;;;;;;;5.38;3.33;;;17.90;99.90;;;;;;5052920;28;20119;-66
2022/07/08 04:07:43;;;;;;;4.07;2.92;;;17.90;99.90;;;;;;5052932;28;20108;-74
2022/07/08 04:10:09;;;;;;;6.90;3.20;;;17.90;99.90;;;;;;5052774;28;20104;-75
2022/07/08 04:12:34;;;;;;;4.57;3.50;;;17.80;99.90;;;;;;5055340;28;20068;-63
2022/07/08 04:15:01;;;;;;;4.15;3.28;;;17.80;99.90;;;;;;5067142;28;20052;-61
2022/07/08 04:17:27;;;;;;;5.13;3.30;;;17.80;99.90;;;;;;5063048;28;20155;-66
2022/07/08 04:19:53;;;;;;;5.50;3.10;;;17.70;99.90;;;;;;5064923;28;20104;-68
2022/07/08 04:22:19;;;;;;;5.25;3.60;;;17.70;99.90;;;;;;5058031;28;20430;-74
2022/07/08 04:24:44;;;;;;;5.63;3.70;;;17.60;99.90;;;;;;5052249;28;20021;-72
2022/07/08 04:27:10;;;;;;;7.40;3.50;;;17.60;99.90;;;;;;5052330;28;20052;-75
2022/07/08 04:29:36;;;;;;;6.93;4.05;;;17.60;99.90;;;;;;5052336;28;20013;-73
2022/07/08 04:32:02;;;;;;;14.02;4.32;;;17.50;99.90;;;;;;5052725;28;20028;-74
2022/07/08 04:34:28;;;;;;;5.20;3.80;;;17.40;99.90;;;;;;5056565;28;20029;-75
2022/07/08 04:36:54;;;;;;;9.05;4.07;;;17.40;99.90;;;;;;5052606;28;20033;-72
2022/07/08 04:39:19;;;;;;;5.00;3.65;;;17.50;99.90;;;;;;5052666;28;20021;-75
2022/07/08 04:41:45;;;;;;;6.50;3.38;;;17.40;99.90;;;;;;5052283;28;20037;-74
2022/07/08 04:44:11;;;;;;;6.60;3.45;;;17.40;99.90;;;;;;5056018;28;20160;-76
2022/07/08 04:46:37;;;;;;;5.93;3.83;;;17.40;99.90;;;;;;5052131;28;20028;-75
2022/07/08 04:49:03;;;;;;;11.82;4.40;;;17.40;99.90;;;;;;5051988;28;20450;-75
2022/07/08 04:51:29;;;;;;;6.90;4.05;;;17.30;99.90;;;;;;5059816;28;20059;-76
2022/07/08 04:53:55;;;;;;;6.50;3.92;;;17.40;99.90;;;;;;5053869;28;20021;-73
2022/07/08 04:56:21;;;;;;;5.65;4.15;;;17.40;99.90;;;;;;5051832;28;20032;-76
2022/07/08 04:58:47;;;;;;;7.28;3.85;;;17.30;99.90;;;;;;5059948;28;20029;-72
2022/07/08 05:01:14;;;;;;;6.80;4.38;;;17.40;99.90;;;;;;5051798;28;20036;-75
2022/07/08 05:03:40;;;;;;;6.10;3.90;;;17.40;99.90;;;;;;5058403;28;20597;-75
2022/07/08 05:06:06;;;;;;;7.40;3.90;;;17.40;99.90;;;;;;5082948;28;20028;-74
2022/07/08 05:08:32;;;;;;;6.78;3.90;;;17.40;99.90;;;;;;5091677;28;20027;-76
2022/07/08 05:10:58;;;;;;;7.40;3.78;;;17.30;99.90;;;;;;5072600;28;20052;-72
2022/07/08 05:13:23;;;;;;;4.93;3.78;;;17.30;99.90;;;;;;5072832;28;20029;-75
2022/07/08 05:15:49;;;;;;;7.57;4.35;;;17.40;99.90;;;;;;5072021;28;21871;-76
2022/07/08 05:18:15;;;;;;;5.55;3.58;;;17.30;99.90;;;;;;5072699;28;20028;-74
2022/07/08 05:20:41;;;;;;;6.57;3.60;;;17.30;99.90;;;;;;5072803;28;20104;-73
2022/07/08 05:23:08;;;;;;;6.38;3.65;;;17.40;99.90;;;;;;5073018;28;20013;-76
2022/07/08 05:25:34;;;;;;;6.35;3.95;;;17.40;99.90;;;;;;5072607;28;20461;-77
2022/07/08 05:28:00;;;;;;;5.75;4.03;;;17.30;99.90;;;;;;5072641;28;20099;-74
2022/07/08 05:30:25;;;;;;;7.15;4.78;;;17.30;99.90;;;;;;5072696;28;20094;-76
2022/07/08 05:32:51;;;;;;;11.27;4.32;;;17.40;99.90;;;;;;5072754;28;20035;-73
2022/07/08 05:35:17;;;;;;;6.80;4.47;;;17.40;99.90;;;;;;5077605;28;20028;-75
2022/07/08 05:37:43;;;;;;;7.45;4.45;;;17.40;99.90;;;;;;5072092;28;20090;-76
2022/07/08 05:40:10;;;;;;;6.75;4.57;;;17.40;99.90;;;;;;5078895;28;20023;-76
2022/07/08 05:42:37;;;;;;;9.48;4.40;;;17.40;99.90;;;;;;5072545;28;20082;-74
2022/07/08 05:45:04;;;;;;;6.43;4.47;;;17.40;99.90;;;;;;5072013;28;20024;-74
2022/07/08 05:47:30;;;;;;;7.95;5.20;;;17.40;99.90;;;;;;5077671;28;20035;-74
2022/07/08 05:49:56;;;;;;;9.65;5.40;;;17.40;99.90;;;;;;5078315;28;20052;-73
2022/07/08 05:52:21;;;;;;;8.80;4.40;;;17.40;99.90;;;;;;5071819;28;20506;-74
2022/07/08 05:54:48;;;;;;;8.90;5.00;;;17.40;99.90;;;;;;5080563;28;20639;-76
2022/07/08 05:57:14;;;;;;;7.00;4.72;;;17.50;99.90;;;;;;5073537;28;20028;-77
2022/07/08 05:59:41;;;;;;;7.18;4.45;;;17.60;99.90;;;;;;5072160;28;20150;-75
2022/07/08 06:02:07;;;;;;;6.70;4.47;;;17.60;99.90;;;;;;5070890;28;20021;-74
2022/07/08 06:04:33;;;;;;;6.22;4.68;;;17.70;99.90;;;;;;5103770;28;20028;-68
2022/07/08 06:06:59;;;;;;;7.03;4.93;;;17.80;99.90;;;;;;5071894;28;20020;-72
2022/07/08 06:09:25;;;;;;;6.57;4.78;;;17.80;99.90;;;;;;5072105;28;20044;-75
2022/07/08 06:11:50;;;;;;;6.57;4.65;;;18.00;99.90;;;;;;5071338;28;20040;-77
2022/07/08 06:14:17;;;;;;;8.20;5.03;;;18.10;99.90;;;;;;5070811;28;20032;-75
2022/07/08 06:16:43;;;;;;;6.72;4.07;;;18.10;99.90;;;;;;5069386;28;20040;-76
2022/07/08 06:19:09;;;;;;;9.70;5.30;;;18.00;99.90;;;;;;5070927;28;20023;-70
2022/07/08 06:21:35;;;;;;;8.27;5.28;;;18.00;99.90;;;;;;5076753;28;20547;-76
2022/07/08 06:24:01;;;;;;;9.02;5.32;;;18.00;99.90;;;;;;5070440;28;20497;-77
2022/07/08 06:26:27;;;;;;;6.88;4.43;;;17.90;99.90;;;;;;5071467;28;20031;-76
2022/07/08 06:28:53;;;;;;;6.85;4.28;;;18.00;99.90;;;;;;5071473;28;20471;-77
2022/07/08 06:31:19;;;;;;;7.55;4.60;;;18.00;99.90;;;;;;5070498;28;20028;-75
2022/07/08 06:33:45;;;;;;;9.27;5.47;;;18.10;99.90;;;;;;5070591;28;20032;-74
2022/07/08 06:36:10;;;;;;;18.35;12.00;;;18.10;99.90;;;;;;5071813;28;20028;-75
2022/07/08 06:38:36;;;;;;;24.40;16.50;;;18.00;99.90;;;;;;5071541;28;20120;-73
2022/07/08 06:41:02;;;;;;;35.35;24.88;;;18.00;99.90;;;;;;5071062;28;20034;-76
2022/07/08 06:43:28;;;;;;;40.83;29.45;;;17.90;99.90;;;;;;5070987;28;20080;-75
2022/07/08 06:45:54;;;;;;;20.30;12.80;;;17.90;99.90;;;;;;5071228;28;20032;-75
2022/07/08 06:48:19;;;;;;;17.77;9.48;;;18.00;99.90;;;;;;5071208;28;20028;-75
2022/07/08 06:50:45;;;;;;;82.72;57.63;;;18.00;99.90;;;;;;5071540;28;20024;-75
2022/07/08 06:53:11;;;;;;;11.18;6.53;;;18.10;99.90;;;;;;5071010;28;20055;-77
2022/07/08 06:55:37;;;;;;;26.60;13.90;;;18.20;99.90;;;;;;5070891;28;20037;-76
2022/07/08 06:58:03;;;;;;;27.25;16.50;;;18.30;99.90;;;;;;5071940;28;20032;-74
2022/07/08 07:00:30;;;;;;;44.70;27.75;;;18.30;99.90;;;;;;5072039;28;20025;-74
2022/07/08 07:02:56;;;;;;;49.08;31.73;;;18.30;99.90;;;;;;5071117;28;20032;-73
2022/07/08 07:05:22;;;;;;;46.92;27.02;;;18.30;99.90;;;;;;5070043;28;20028;-75
2022/07/08 07:07:48;;;;;;;13.52;8.23;;;18.30;99.90;;;;;;5070641;28;20490;-76
2022/07/08 07:10:14;;;;;;;7.68;4.65;;;18.40;99.90;;;;;;5070356;28;20032;-76
2022/07/08 07:12:40;;;;;;;15.68;8.23;;;18.30;99.90;;;;;;5070910;28;20042;-77
2022/07/08 07:15:06;;;;;;;21.27;10.07;;;18.30;99.90;;;;;;5070925;28;20060;-68
2022/07/08 07:17:32;;;;;;;11.20;5.70;;;18.30;99.90;;;;;;5070824;28;20074;-77
2022/07/08 07:19:58;;;;;;;13.40;6.80;;;18.30;99.90;;;;;;5073624;28;20032;-76
2022/07/08 07:22:24;;;;;;;25.58;14.88;;;18.40;99.90;;;;;;5070643;28;20024;-75
2022/07/08 07:24:50;;;;;;;14.23;6.65;;;18.40;99.90;;;;;;5071041;28;20065;-75
2022/07/08 07:27:16;;;;;;;25.05;12.77;;;18.20;99.90;;;;;;5070970;28;20360;-75
2022/07/08 07:29:42;;;;;;;30.27;17.92;;;18.30;99.90;;;;;;5074019;28;20029;-76
2022/07/08 07:32:08;;;;;;;20.52;11.75;;;18.40;99.90;;;;;;5073858;28;20021;-75
2022/07/08 07:34:34;;;;;;;32.20;14.10;;;18.40;99.90;;;;;;5074823;28;20024;-70
2022/07/08 07:37:00;;;;;;;26.58;13.63;;;18.40;99.90;;;;;;5072635;28;20041;-73
2022/07/08 07:39:26;;;;;;;18.60;8.50;;;18.50;99.90;;;;;;5076995;28;20025;-73
2022/07/08 07:41:52;;;;;;;28.73;14.02;;;18.40;99.90;;;;;;5073188;28;20066;-75
2022/07/08 07:44:17;;;;;;;36.30;16.23;;;18.40;99.90;;;;;;5074185;28;20153;-75
2022/07/08 07:46:44;;;;;;;19.05;8.30;;;18.50;99.90;;;;;;5073720;28;20028;-74
2022/07/08 07:49:10;;;;;;;17.08;10.00;;;18.40;99.90;;;;;;5073113;28;20048;-74
2022/07/08 07:51:36;;;;;;;18.35;10.32;;;18.50;99.90;;;;;;5074294;28;20024;-74
2022/07/08 07:54:02;;;;;;;16.98;9.57;;;18.40;99.90;;;;;;5074015;28;20090;-73
2022/07/08 07:56:28;;;;;;;35.13;15.88;;;18.40;99.90;;;;;;5074010;28;20548;-73
2022/07/08 07:58:54;;;;;;;29.23;13.55;;;18.40;99.90;;;;;;5073855;28;20020;-73
2022/07/08 08:01:19;;;;;;;26.08;11.57;;;18.40;99.90;;;;;;5073489;28;20024;-72
2022/07/08 08:03:45;;;;;;;18.80;9.60;;;18.40;99.90;;;;;;5073238;28;20469;-73
2022/07/08 08:06:11;;;;;;;24.67;11.38;;;18.40;99.90;;;;;;5072160;28;20029;-69
2022/07/08 08:08:37;;;;;;;22.52;10.45;;;18.40;99.90;;;;;;5062152;28;20017;-74
2022/07/08 08:11:05;;;;;;;19.23;8.20;;;18.30;99.90;;;;;;5072451;28;20465;-73
2022/07/08 08:13:31;;;;;;;21.77;11.50;;;18.40;99.90;;;;;;5073987;28;20560;-72
2022/07/08 08:15:57;;;;;;;25.15;13.52;;;18.40;99.90;;;;;;5073781;28;20040;-73
2022/07/08 08:18:23;;;;;;;18.02;10.13;;;18.40;99.90;;;;;;5073536;28;20028;-73
2022/07/08 08:20:49;;;;;;;16.42;8.85;;;18.20;99.90;;;;;;5074177;28;20074;-70
2022/07/08 08:23:15;;;;;;;19.52;10.70;;;18.20;99.90;;;;;;5076372;28;20510;-72
2022/07/08 08:25:44;;;;;;;23.92;10.98;;;18.20;99.90;;;;;;5070393;28;20511;-70
2022/07/08 08:28:10;;;;;;;17.23;10.55;;;18.10;99.90;;;;;;5071963;28;20021;-69
2022/07/08 08:30:36;;;;;;;21.70;11.95;;;18.20;99.90;;;;;;5073558;28;20399;-74
2022/07/08 08:33:02;;;;;;;47.58;28.40;;;18.20;99.90;;;;;;5072260;28;20024;-69
2022/07/08 08:35:28;;;;;;;19.85;10.95;;;18.20;99.90;;;;;;5072696;28;20032;-73
2022/07/08 08:37:53;;;;;;;10.65;6.32;;;18.20;99.90;;;;;;5072118;28;20129;-65
2022/07/08 08:40:24;;;;;;;11.73;6.80;;;18.30;99.90;;;;;;5072531;28;20360;-75
2022/07/08 08:42:50;;;;;;;13.90;6.05;;;18.20;99.90;;;;;;5071719;28;20024;-75
2022/07/08 08:45:16;;;;;;;12.95;7.45;;;18.30;99.90;;;;;;5072796;28;20494;-74
2022/07/08 08:47:49;;;;;;;11.07;6.70;;;18.40;99.90;;;;;;5072733;28;20039;-73
2022/07/08 08:53:02;;;;;;;9.10;5.35;;;18.50;99.90;;;;;;5064453;28;20085;-76
2022/07/08 08:55:30;;;;;;;7.90;5.30;;;18.50;99.90;;;;;;5073104;28;20430;-76
2022/07/08 08:58:06;;;;;;;7.20;3.80;;;18.50;99.90;;;;;;5072260;28;20078;-75
2022/07/08 09:00:33;;;;;;;6.55;4.60;;;18.60;99.90;;;;;;5072598;28;20394;-76
2022/07/08 09:03:00;;;;;;;8.32;5.15;;;18.70;99.90;;;;;;5072359;28;20020;-72
2022/07/08 09:05:26;;;;;;;8.57;5.03;;;18.70;99.90;;;;;;5075685;28;20103;-71
2022/07/08 09:07:54;;;;;;;7.28;5.07;;;18.80;99.90;;;;;;5072527;28;20032;-75
2022/07/08 09:10:20;;;;;;;12.07;5.70;;;18.70;99.90;;;;;;5072032;28;20048;-72
2022/07/08 09:13:10;;;;;;;8.10;4.88;;;18.80;99.90;;;;;;5072264;28;20033;-73
2022/07/08 09:15:40;;;;;;;8.48;5.03;;;18.70;99.90;;;;;;5072454;28;20135;-75
2022/07/08 09:18:08;;;;;;;7.90;5.07;;;18.70;99.90;;;;;;5071659;28;20028;-73
2022/07/08 09:20:43;;;;;;;8.80;4.88;;;18.80;99.90;;;;;;5075901;28;20032;-74
2022/07/08 09:23:12;;;;;;;7.97;4.68;;;18.80;99.90;;;;;;5071171;28;20017;-74
2022/07/08 09:25:41;;;;;;;8.45;4.97;;;18.70;99.90;;;;;;5072003;28;20028;-75
2022/07/08 09:28:07;;;;;;;10.75;5.03;;;18.80;99.90;;;;;;5072123;28;20133;-69
2022/07/08 09:30:33;;;;;;;9.48;5.22;;;18.80;99.90;;;;;;5071754;28;20012;-71
2022/07/08 09:33:00;;;;;;;7.53;4.35;;;18.80;99.90;;;;;;5071188;28;20406;-76
2022/07/08 09:35:37;;;;;;;6.75;4.43;;;18.80;99.90;;;;;;5070612;28;20051;-74
2022/07/08 09:38:05;;;;;;;6.18;4.45;;;18.90;99.90;;;;;;5070409;28;20411;-72
2022/07/08 09:40:32;;;;;;;8.52;5.40;;;18.90;99.90;;;;;;5065114;28;20071;-74
2022/07/08 09:43:10;;;;;;;7.07;4.55;;;18.80;99.90;;;;;;5072134;28;20036;-75
2022/07/08 09:45:36;;;;;;;9.07;4.57;;;18.90;99.90;;;;;;5078215;28;20039;-68
2022/07/08 09:48:09;;;;;;;6.25;4.47;;;19.10;99.90;;;;;;5071817;28;20012;-76
2022/07/08 09:50:40;;;;;;;10.10;5.05;;;18.90;99.90;;;;;;5071102;28;20068;-74
2022/07/08 09:53:13;;;;;;;8.15;4.95;;;19.10;99.90;;;;;;5056106;28;20029;-73
2022/07/08 09:55:47;;;;;;;6.82;4.72;;;19.20;99.90;;;;;;5049675;28;20103;-71
2022/07/08 09:58:14;;;;;;;7.78;4.95;;;19.20;99.90;;;;;;5050354;28;20506;-74
2022/07/08 10:00:42;;;;;;;6.35;4.53;;;19.10;99.90;;;;;;5052756;28;20030;-75
2022/07/08 10:03:08;;;;;;;6.78;4.68;;;19.20;99.90;;;;;;5054213;28;20024;-74
2022/07/08 10:05:34;;;;;;;9.85;5.13;;;19.40;99.90;;;;;;5051321;28;20498;-74
2022/07/08 10:08:01;;;;;;;7.40;5.10;;;19.30;99.90;;;;;;5049719;28;20110;-76
2022/07/08 10:10:27;;;;;;;7.60;5.43;;;19.50;99.90;;;;;;5049735;28;20115;-76
2022/07/08 10:12:57;;;;;;;7.47;4.70;;;19.40;99.90;;;;;;5051822;28;20041;-73
2022/07/08 10:15:28;;;;;;;8.07;4.63;;;19.40;99.90;;;;;;5050271;28;20055;-72
2022/07/08 10:17:57;;;;;;;8.07;5.00;;;19.50;99.90;;;;;;5049823;28;20025;-74
2022/07/08 10:20:27;;;;;;;9.30;5.45;;;19.50;99.90;;;;;;5057911;28;20029;-72
2022/07/08 10:22:57;;;;;;;9.63;5.45;;;19.50;99.90;;;;;;5065398;28;20028;-76
2022/07/08 10:25:24;;;;;;;7.28;4.95;;;19.60;99.90;;;;;;5069137;28;20107;-72
2022/07/08 10:27:50;;;;;;;5.68;4.57;;;19.50;99.90;;;;;;5067506;28;20028;-71
2022/07/08 10:30:20;;;;;;;7.97;5.50;;;19.70;99.90;;;;;;5070536;28;20390;-72
2022/07/08 10:32:47;;;;;;;10.70;6.70;;;19.90;99.90;;;;;;5061970;28;20639;-75
2022/07/08 10:35:19;;;;;;;11.25;6.60;;;19.90;99.90;;;;;;5064736;28;20024;-74
2022/07/08 10:38:01;;;;;;;11.20;6.78;;;19.90;99.90;;;;;;5067277;28;20040;-73
2022/07/08 10:40:41;;;;;;;8.87;5.43;;;20.10;99.90;;;;;;5069892;28;20108;-76
2022/07/08 10:43:25;;;;;;;9.02;4.70;;;20.20;99.90;;;;;;5071861;28;20265;-75
2022/07/08 10:46:26;;;;;;;10.60;5.80;;;20.50;99.90;;;;;;5070466;28;20455;-75
2022/07/08 10:49:00;;;;;;;5.32;4.55;;;20.50;99.90;;;;;;5008816;28;20052;-75
2022/07/08 10:51:26;;;;;;;11.75;6.05;;;20.70;99.90;;;;;;5009211;28;20125;-72
2022/07/08 10:53:57;;;;;;;10.07;5.15;;;20.70;99.90;;;;;;5009749;28;20499;-75
2022/07/08 10:56:55;;;;;;;7.80;4.85;;;20.60;99.90;;;;;;5009337;28;20042;-76
2022/07/08 10:59:37;;;;;;;8.75;5.45;;;20.70;99.90;;;;;;5009452;28;20112;-75
2022/07/08 11:02:03;;;;;;;;;;;20.80;99.90;;;;;;4993964;28;20030;-76
2022/07/08 11:04:31;;;;;;;6.88;4.65;;;20.80;99.90;;;;;;5012477;28;19995;-76
2022/07/08 11:07:28;;;;;;;7.32;5.15;;;20.80;99.90;;;;;;5013806;28;20520;-76
2022/07/08 11:10:04;;;;;;;8.15;5.18;;;20.90;99.90;;;;;;5013318;28;20116;-75
2022/07/08 11:12:39;;;;;;;12.23;6.82;;;20.80;99.90;;;;;;5013264;28;20100;-76
2022/07/08 11:15:09;;;;;;;9.93;5.70;;;20.90;99.90;;;;;;5013616;28;20165;-77
2022/07/08 11:17:36;;;;;;;10.60;6.32;;;21.00;99.90;;;;;;5013362;28;20042;-76
2022/07/08 11:20:09;;;;;;;10.15;5.00;;;20.90;99.90;;;;;;5012829;28;20026;-75
2022/07/08 11:22:40;;;;;;;11.80;6.18;;;21.10;99.90;;;;;;5013373;28;20105;-75
2022/07/08 11:25:09;;;;;;;9.73;6.22;;;21.40;99.90;;;;;;5062224;28;20139;-77
2022/07/08 11:27:35;;;;;;;8.38;5.70;;;21.30;99.90;;;;;;5074450;28;20024;-73
2022/07/08 11:30:04;;;;;;;7.85;4.30;;;21.50;99.90;;;;;;5073098;28;20029;-74
2022/07/08 11:32:30;;;;;;;11.00;7.15;;;21.50;99.90;;;;;;5073630;28;20107;-76
2022/07/08 11:34:56;;;;;;;11.90;6.20;;;21.60;99.90;;;;;;5074999;28;20135;-77
2022/07/08 11:37:23;;;;;;;8.88;4.95;;;21.70;99.90;;;;;;5074382;28;20044;-77
2022/07/08 11:39:49;;;;;;;12.38;6.50;;;22.00;99.90;;;;;;5074382;28;20111;-75
2022/07/08 11:42:16;;;;;;;10.32;5.40;;;22.00;99.90;;;;;;5074534;28;20033;-77
2022/07/08 11:44:45;;;;;;;6.50;4.20;;;22.40;99.90;;;;;;5074726;28;20055;-72
2022/07/08 11:47:19;;;;;;;9.05;5.22;;;22.50;99.90;;;;;;5061638;28;20060;-75
2022/07/08 11:49:47;;;;;;;9.15;5.40;;;22.50;99.90;;;;;;5073423;28;20064;-76
2022/07/08 11:52:19;;;;;;;6.35;4.25;;;22.30;99.90;;;;;;5074801;28;20467;-75
2022/07/08 11:54:46;;;;;;;6.18;4.38;;;22.30;99.90;;;;;;5074904;28;20032;-76
2022/07/08 11:57:13;;;;;;;10.75;4.40;;;22.40;99.90;;;;;;5074431;28;20437;-77
2022/07/08 11:59:38;;;;;;;6.57;4.38;;;22.40;99.90;;;;;;5074698;28;20486;-75
2022/07/08 12:02:05;;;;;;;8.00;5.68;;;22.20;99.90;;;;;;5074456;28;20126;-75
2022/07/08 12:04:32;;;;;;;8.40;4.43;;;22.50;99.90;;;;;;5070076;28;20501;-74
2022/07/08 12:07:01;;;;;;;6.43;4.55;;;22.60;99.90;;;;;;5073242;28;20021;-77
2022/07/08 12:09:29;;;;;;;10.40;5.13;;;22.80;99.90;;;;;;5074563;28;20025;-76
2022/07/08 12:11:57;;;;;;;6.00;4.20;;;23.00;99.90;;;;;;5074170;28;20049;-76
2022/07/08 12:14:24;;;;;;;5.53;4.13;;;23.10;99.90;;;;;;5073925;28;20035;-74
2022/07/08 12:16:54;;;;;;;5.40;4.13;;;23.00;99.90;;;;;;5074291;28;20036;-75
2022/07/08 12:19:36;;;;;;;8.48;4.20;;;23.00;99.90;;;;;;5074072;28;20035;-76
2022/07/08 12:22:04;;;;;;;9.98;3.92;;;23.10;99.90;;;;;;5074712;28;20035;-75
2022/07/08 12:24:35;;;;;;;4.43;3.35;;;23.10;99.90;;;;;;5074118;28;20020;-73
2022/07/08 12:27:09;;;;;;;7.10;3.37;;;22.80;99.90;;;;;;5074319;28;20024;-77
2022/07/08 12:29:38;;;;;;;6.93;3.50;;;22.80;99.90;;;;;;5073969;28;20165;-74
2022/07/08 12:32:08;;;;;;;6.45;4.10;;;22.90;99.90;;;;;;5074089;28;20360;-74
2022/07/08 12:34:35;;;;;;;4.65;2.95;;;23.40;99.90;;;;;;5073948;28;20022;-76
2022/07/08 12:37:13;;;;;;;3.90;3.50;;;23.40;99.90;;;;;;5073993;28;20083;-78
2022/07/08 12:39:38;;;;;;;9.32;4.50;;;23.30;99.90;;;;;;5073647;28;20016;-75
2022/07/08 12:42:05;;;;;;;6.00;3.47;;;23.40;99.90;;;;;;5073647;28;20035;-76
2022/07/08 12:44:31;;;;;;;6.35;3.60;;;23.40;99.90;;;;;;5074029;28;20028;-77
2022/07/08 12:46:57;;;;;;;5.85;3.67;;;23.40;99.90;;;;;;5073688;28;20391;-75
2022/07/08 12:49:28;;;;;;;3.55;2.90;;;23.40;99.90;;;;;;5073708;28;20023;-74